createdAt,value
2017-12-02T00:00:01.022Z,97128.31
2017-12-02T00:02:32.907Z,97127.81
2017-12-02T00:05:00.877Z,97123.22
2017-12-02T00:07:30.449Z,97126.48
2017-12-02T00:10:00.393Z,97128.89
2017-12-02T00:12:31.427Z,97136.27
2017-12-02T00:14:59.196Z,97136.16
2017-12-02T00:17:27.963Z,97141.48
2017-12-02T00:19:58.610Z,97142.58
2017-12-02T00:22:29.083Z,97151.17
2017-12-02T00:24:56.836Z,97160.69
2017-12-02T00:27:28.294Z,97163.09
2017-12-02T00:29:56.999Z,97166.33
2017-12-02T00:32:24.908Z,97172.52
2017-12-02T00:34:54.116Z,97165.29
2017-12-02T00:37:22.897Z,97172.95
2017-12-02T00:39:52.413Z,97171.25
2017-12-02T00:42:21.015Z,97177.38
2017-12-02T00:44:48.896Z,97179.66
2017-12-02T00:47:16.671Z,97183.36
2017-12-02T00:49:44.505Z,97180.15
2017-12-02T00:52:12.939Z,97187.30
2017-12-02T00:54:40.624Z,97191.40
2017-12-02T00:57:08.549Z,97185.91
2017-12-02T00:59:36.217Z,97187.00
2017-12-02T01:02:03.895Z,97182.60
2017-12-02T01:04:33.824Z,97188.32
2017-12-02T01:07:01.680Z,97198.57
2017-12-02T01:09:29.327Z,97200.97
2017-12-02T01:11:59.681Z,97194.50
2017-12-02T01:14:27.425Z,97204.00
2017-12-02T01:16:57.149Z,97209.03
2017-12-02T01:19:24.983Z,97209.13
2017-12-02T01:21:53.639Z,97213.52
2017-12-02T01:24:22.124Z,97211.41
2017-12-02T01:26:49.893Z,97229.77
2017-12-02T01:29:17.617Z,97228.88
2017-12-02T01:31:45.299Z,97226.39
2017-12-02T01:34:12.969Z,97230.92
2017-12-02T01:36:41.525Z,97240.43
2017-12-02T01:39:11.521Z,97243.17
2017-12-02T01:41:39.230Z,97246.47
2017-12-02T01:44:07.685Z,97245.49
2017-12-02T01:46:36.054Z,97245.45
2017-12-02T01:49:03.727Z,97253.30
2017-12-02T01:51:31.388Z,97260.87
2017-12-02T01:53:59.050Z,97256.39
2017-12-02T01:56:28.493Z,97270.38
2017-12-02T01:58:56.421Z,97266.27
2017-12-02T02:01:24.079Z,97270.97
2017-12-02T02:03:53.640Z,97271.11
2017-12-02T02:06:21.564Z,97271.66
2017-12-02T02:08:49.425Z,97274.65
2017-12-02T02:11:17.403Z,97277.89
2017-12-02T02:13:45.083Z,97279.73
2017-12-02T02:16:12.751Z,97273.31
2017-12-02T02:18:40.451Z,97280.81
2017-12-02T02:21:08.254Z,97283.38
2017-12-02T02:23:35.980Z,97276.55
2017-12-02T02:26:03.633Z,97279.48
2017-12-02T02:28:31.291Z,97270.63
2017-12-02T02:30:58.958Z,97275.17
2017-12-02T02:33:26.652Z,97290.52
2017-12-02T02:35:54.386Z,97283.43
2017-12-02T02:38:22.047Z,97285.57
2017-12-02T02:40:49.863Z,97293.47
2017-12-02T02:43:17.541Z,97291.94
2017-12-02T02:45:45.452Z,97291.77
2017-12-02T02:48:13.315Z,97296.11
2017-12-02T02:50:42.021Z,97301.20
2017-12-02T02:53:09.766Z,97303.81
2017-12-02T02:55:37.492Z,97307.23
2017-12-02T02:58:05.191Z,97304.33
2017-12-02T03:00:32.953Z,97306.82
2017-12-02T03:03:01.505Z,97305.92
2017-12-02T03:05:29.176Z,97307.25
2017-12-02T03:07:57.613Z,97309.92
2017-12-02T03:10:25.296Z,97310.06
2017-12-02T03:12:53.973Z,97310.64
2017-12-02T03:15:22.478Z,97312.50
2017-12-02T03:17:51.759Z,97321.30
2017-12-02T03:20:19.491Z,97322.16
2017-12-02T03:22:47.261Z,97321.38
2017-12-02T03:25:14.916Z,97315.22
2017-12-02T03:27:42.579Z,97318.06
2017-12-02T03:30:10.654Z,97311.26
2017-12-02T03:32:39.397Z,97317.17
2017-12-02T03:35:07.039Z,97325.97
2017-12-02T03:37:34.703Z,97326.95
2017-12-02T03:40:02.346Z,97331.34
2017-12-02T03:42:29.995Z,97332.73
2017-12-02T03:44:57.667Z,97329.03
2017-12-02T03:47:25.532Z,97327.41
2017-12-02T03:49:53.440Z,97335.03
2017-12-02T03:52:21.279Z,97342.95
2017-12-02T03:54:48.973Z,97340.55
2017-12-02T03:57:17.413Z,97353.06
2017-12-02T03:59:45.114Z,97341.42
2017-12-02T04:02:12.849Z,97340.27
2017-12-02T04:04:40.502Z,97347.06
2017-12-02T04:07:08.371Z,97349.67
2017-12-02T04:09:36.040Z,97358.02
2017-12-02T04:12:03.842Z,97358.07
2017-12-02T04:14:32.256Z,97359.86
2017-12-02T04:16:59.942Z,97359.05
2017-12-02T04:19:29.346Z,97367.39
2017-12-02T04:21:57.092Z,97377.53
2017-12-02T04:24:24.807Z,97378.34
2017-12-02T04:26:52.506Z,97385.49
2017-12-02T04:29:20.198Z,97383.46
2017-12-02T04:31:49.743Z,97388.01
2017-12-02T04:34:17.452Z,97388.53
2017-12-02T04:36:45.650Z,97396.61
2017-12-02T04:39:15.148Z,97397.19
2017-12-02T04:41:42.848Z,97394.50
2017-12-02T04:44:10.536Z,97400.44
2017-12-02T04:46:38.198Z,97400.34
2017-12-02T04:49:05.858Z,97392.00
2017-12-02T04:51:33.597Z,97401.53
2017-12-02T04:54:01.328Z,97398.09
2017-12-02T04:56:30.795Z,97399.25
2017-12-02T04:58:58.537Z,97411.33
2017-12-02T05:01:26.188Z,97410.52
2017-12-02T05:03:54.006Z,97401.80
2017-12-02T05:06:21.666Z,97405.39
2017-12-02T05:08:49.330Z,97406.17
2017-12-02T05:11:17.786Z,97410.37
2017-12-02T05:13:45.544Z,97409.19
2017-12-02T05:16:13.176Z,97411.55
2017-12-02T05:18:40.882Z,97407.88
2017-12-02T05:21:08.558Z,97404.41
2017-12-02T05:23:36.214Z,97408.95
2017-12-02T05:26:05.604Z,97414.73
2017-12-02T05:28:33.353Z,97413.95
2017-12-02T05:31:01.320Z,97418.19
2017-12-02T05:33:29.010Z,97418.63
2017-12-02T05:35:56.672Z,97416.97
2017-12-02T05:38:24.350Z,97418.71
2017-12-02T05:40:52.016Z,97419.98
2017-12-02T05:43:19.712Z,97425.40
2017-12-02T05:45:47.440Z,97428.77
2017-12-02T05:48:15.092Z,97429.52
2017-12-02T05:50:42.752Z,97437.10
2017-12-02T05:53:10.515Z,97442.09
2017-12-02T05:55:38.310Z,97443.97
2017-12-02T05:58:07.710Z,97452.92
2017-12-02T06:00:37.872Z,97460.30
2017-12-02T06:03:06.324Z,97457.78
2017-12-02T06:05:33.989Z,97454.57
2017-12-02T06:08:01.712Z,97459.55
2017-12-02T06:10:31.648Z,97462.56
2017-12-02T06:12:59.286Z,97467.55
2017-12-02T06:15:27.715Z,97470.42
2017-12-02T06:17:56.198Z,97480.38
2017-12-02T06:20:23.902Z,97480.09
2017-12-02T06:22:53.337Z,97480.09
2017-12-02T06:25:23.615Z,97485.83
2017-12-02T06:27:54.946Z,97487.56
2017-12-02T06:30:22.654Z,97484.20
2017-12-02T06:32:50.387Z,97490.90
2017-12-02T06:35:18.813Z,97485.52
2017-12-02T06:37:46.457Z,97492.20
2017-12-02T06:40:14.888Z,97491.11
2017-12-02T06:42:44.306Z,97488.73
2017-12-02T06:45:12.804Z,97487.92
2017-12-02T06:47:41.447Z,97492.98
2017-12-02T06:50:09.152Z,97491.05
2017-12-02T06:52:39.462Z,97496.96
2017-12-02T06:55:08.267Z,97499.45
2017-12-02T06:57:37.608Z,97502.73
2017-12-02T07:00:05.354Z,97510.72
2017-12-02T07:02:33.826Z,97505.66
2017-12-02T07:05:01.625Z,97514.05
2017-12-02T07:07:31.416Z,97515.06
2017-12-02T07:10:01.831Z,97517.55
2017-12-02T07:12:31.780Z,97528.23
2017-12-02T07:14:59.873Z,97529.39
2017-12-02T07:17:27.754Z,97530.23
2017-12-02T07:19:55.455Z,97530.44
2017-12-02T07:22:23.175Z,97531.28
2017-12-02T07:24:50.869Z,97537.95
2017-12-02T07:27:21.137Z,97531.80
2017-12-02T07:29:48.922Z,97544.06
2017-12-02T07:32:19.252Z,97550.07
2017-12-02T07:34:46.985Z,97554.08
2017-12-02T07:37:16.567Z,97550.98
2017-12-02T07:39:44.304Z,97556.52
2017-12-02T07:42:14.729Z,97564.72
2017-12-02T07:44:45.124Z,97566.15
2017-12-02T07:47:13.205Z,97563.13
2017-12-02T07:49:40.909Z,97566.81
2017-12-02T07:52:08.649Z,97569.02
2017-12-02T07:54:36.288Z,97567.57
2017-12-02T07:57:05.655Z,97574.61
2017-12-02T07:59:35.046Z,97571.83
2017-12-02T08:02:02.780Z,97577.25
2017-12-02T08:04:30.484Z,97573.98
2017-12-02T08:06:58.242Z,97575.00
2017-12-02T08:09:27.744Z,97581.58
2017-12-02T08:11:55.492Z,97579.48
2017-12-02T08:14:24.359Z,97580.66
2017-12-02T08:16:53.799Z,97560.88
2017-12-02T08:19:22.326Z,97574.86
2017-12-02T08:21:51.607Z,97575.19
2017-12-02T08:24:21.031Z,97569.61
2017-12-02T08:26:49.557Z,97572.83
2017-12-02T08:29:17.325Z,97578.60
2017-12-02T08:31:44.997Z,97573.76
2017-12-02T08:34:14.450Z,97574.08
2017-12-02T08:36:42.183Z,97576.58
2017-12-02T08:39:11.616Z,97573.84
2017-12-02T08:41:41.168Z,97577.24
2017-12-02T08:44:09.668Z,97571.30
2017-12-02T08:46:37.375Z,97577.91
2017-12-02T08:49:05.948Z,97584.14
2017-12-02T08:51:35.248Z,97581.97
2017-12-02T08:54:03.835Z,97584.45
2017-12-02T08:56:32.311Z,97589.42
2017-12-02T08:59:01.557Z,97589.86
2017-12-02T09:01:31.080Z,97586.95
2017-12-02T09:03:59.607Z,97591.28
2017-12-02T09:06:28.085Z,97597.77
2017-12-02T09:08:55.842Z,97602.03
2017-12-02T09:11:24.335Z,97602.30
2017-12-02T09:13:53.789Z,97602.17
2017-12-02T09:16:21.593Z,97602.95
2017-12-02T09:18:50.953Z,97603.32
2017-12-02T09:21:20.358Z,97602.30
2017-12-02T09:23:49.920Z,97602.33
2017-12-02T09:26:20.253Z,97605.03
2017-12-02T09:28:51.775Z,97607.23
2017-12-02T09:31:19.604Z,97608.25
2017-12-02T09:33:49.842Z,97596.20
2017-12-02T09:36:19.269Z,97611.17
2017-12-02T09:38:48.795Z,97601.72
2017-12-02T09:41:18.414Z,97597.66
2017-12-02T09:43:49.863Z,97602.38
2017-12-02T09:46:18.326Z,97607.98
2017-12-02T09:48:47.819Z,97605.66
2017-12-02T09:51:16.785Z,97597.48
2017-12-02T09:53:45.292Z,97607.64
2017-12-02T09:56:14.852Z,97602.73
2017-12-02T09:58:44.375Z,97596.95
2017-12-02T10:01:12.941Z,97602.65
2017-12-02T10:03:43.504Z,97597.89
2017-12-02T10:06:12.009Z,97597.98
2017-12-02T10:08:41.460Z,97592.45
2017-12-02T10:11:09.468Z,97594.63
2017-12-02T10:13:37.981Z,97594.42
2017-12-02T10:16:05.739Z,97604.39
2017-12-02T10:18:33.477Z,97596.03
2017-12-02T10:21:02.075Z,97598.88
2017-12-02T10:23:29.774Z,97595.70
2017-12-02T10:25:58.344Z,97600.41
2017-12-02T10:28:27.904Z,97597.60
2017-12-02T10:30:57.637Z,97596.93
2017-12-02T10:33:25.698Z,97589.00
2017-12-02T10:35:54.214Z,97587.45
2017-12-02T10:38:23.897Z,97590.47
2017-12-02T10:40:53.237Z,97594.59
2017-12-02T10:43:23.710Z,97586.45
2017-12-02T10:45:56.175Z,97592.36
2017-12-02T10:48:23.950Z,97585.55
2017-12-02T10:50:53.502Z,97581.63
2017-12-02T10:53:22.095Z,97584.75
2017-12-02T10:55:50.515Z,97583.41
2017-12-02T10:58:22.817Z,97586.23
2017-12-02T11:00:52.352Z,97593.20
2017-12-02T11:03:23.950Z,97585.28
2017-12-02T11:05:53.751Z,97586.30
2017-12-02T11:08:21.481Z,97591.48
2017-12-02T11:10:50.924Z,97586.13
2017-12-02T11:13:20.737Z,97588.62
2017-12-02T11:15:50.343Z,97589.80
2017-12-02T11:18:18.270Z,97587.53
2017-12-02T11:20:50.309Z,97583.56
2017-12-02T11:23:18.060Z,97591.33
2017-12-02T11:25:45.796Z,97588.17
2017-12-02T11:28:15.305Z,97590.45
2017-12-02T11:30:43.785Z,97590.80
2017-12-02T11:33:11.656Z,97593.77
2017-12-02T11:35:39.423Z,97591.11
2017-12-02T11:38:07.082Z,97591.14
2017-12-02T11:40:34.759Z,97590.60
2017-12-02T11:43:02.423Z,97594.67
2017-12-02T11:45:30.100Z,97596.73
2017-12-02T11:48:00.224Z,97625.67
2017-12-02T11:50:30.077Z,97604.94
2017-12-02T11:53:01.671Z,97603.28
2017-12-02T11:55:31.630Z,97606.63
2017-12-02T11:58:01.474Z,97606.05
2017-12-02T12:00:29.366Z,97595.89
2017-12-02T12:02:59.854Z,97597.75
2017-12-02T12:05:27.679Z,97599.42
2017-12-02T12:07:57.181Z,97597.77
2017-12-02T12:10:24.900Z,97593.56
2017-12-02T12:12:54.318Z,97593.10
2017-12-02T12:15:22.180Z,97594.66
2017-12-02T12:17:49.885Z,97580.56
2017-12-02T12:20:20.039Z,97590.91
2017-12-02T12:22:47.836Z,97593.19
2017-12-02T12:25:15.508Z,97589.26
2017-12-02T12:27:43.152Z,97587.49
2017-12-02T12:30:10.819Z,97586.67
2017-12-02T12:32:41.144Z,97587.35
2017-12-02T12:35:09.110Z,97580.89
2017-12-02T12:37:38.504Z,97584.53
2017-12-02T12:40:07.071Z,97582.27
2017-12-02T12:42:36.986Z,97585.64
2017-12-02T12:45:06.236Z,97583.14
2017-12-02T12:47:36.449Z,97588.79
2017-12-02T12:50:05.809Z,97589.44
2017-12-02T12:52:34.643Z,97586.31
2017-12-02T12:55:04.078Z,97582.56
2017-12-02T12:57:31.903Z,97587.27
2017-12-02T13:00:01.392Z,97581.75
2017-12-02T13:02:31.784Z,97588.04
2017-12-02T13:04:59.504Z,97595.22
2017-12-02T13:07:31.647Z,97595.89
2017-12-02T13:10:03.745Z,97583.89
2017-12-02T13:12:34.874Z,97566.56
2017-12-02T13:15:02.535Z,97572.09
2017-12-02T13:17:30.216Z,97584.05
2017-12-02T13:19:57.962Z,97587.58
2017-12-02T13:22:28.165Z,97596.72
2017-12-02T13:24:56.599Z,97611.50
2017-12-02T13:27:24.296Z,97613.67
2017-12-02T13:29:53.729Z,97622.27
2017-12-02T13:32:22.234Z,97602.38
2017-12-02T13:34:51.533Z,97607.75
2017-12-02T13:37:20.272Z,97608.16
2017-12-02T13:39:47.949Z,97604.01
2017-12-02T13:42:15.650Z,97613.30
2017-12-02T13:44:43.335Z,97606.66
2017-12-02T13:47:11.171Z,97607.34
2017-12-02T13:49:41.038Z,97616.05
2017-12-02T13:52:10.443Z,97615.11
2017-12-02T13:54:39.765Z,97620.02
2017-12-02T13:57:09.308Z,97625.73
2017-12-02T13:59:37.727Z,97623.59
2017-12-02T14:02:07.039Z,97625.70
2017-12-02T14:04:36.587Z,97640.35
2017-12-02T14:07:05.925Z,97633.56
2017-12-02T14:09:34.547Z,97640.27
2017-12-02T14:12:03.872Z,97627.79
2017-12-02T14:14:33.096Z,97628.58
2017-12-02T14:17:00.831Z,97634.96
2017-12-02T14:19:31.940Z,97642.62
2017-12-02T14:22:00.533Z,97646.82
2017-12-02T14:24:28.550Z,97645.11
2017-12-02T14:27:00.064Z,97650.98
2017-12-02T14:29:29.678Z,97658.34
2017-12-02T14:32:00.615Z,97655.84
2017-12-02T14:34:32.304Z,97656.72
2017-12-02T14:37:08.133Z,97652.59
2017-12-02T14:39:40.643Z,97651.38
2017-12-02T14:42:09.096Z,97645.05
2017-12-02T14:44:38.575Z,97663.45
2017-12-02T14:47:06.557Z,97665.10
2017-12-02T14:49:36.633Z,97662.14
2017-12-02T14:52:04.300Z,97659.73
2017-12-02T14:54:32.226Z,97661.13
2017-12-02T14:57:02.558Z,97662.09
2017-12-02T14:59:31.034Z,97678.34
2017-12-02T15:02:00.546Z,97678.69
2017-12-02T15:04:30.375Z,97671.98
2017-12-02T15:06:58.184Z,97676.48
2017-12-02T15:09:28.194Z,97672.21
2017-12-02T15:12:00.224Z,97671.60
2017-12-02T15:14:29.590Z,97676.30
2017-12-02T15:16:59.185Z,97675.58
2017-12-02T15:19:27.716Z,97670.67
2017-12-02T15:21:59.598Z,97670.67
2017-12-02T15:24:29.565Z,97677.90
2017-12-02T15:27:00.084Z,97673.31
2017-12-02T15:29:28.609Z,97679.41
2017-12-02T15:31:57.950Z,97674.24
2017-12-02T15:34:28.053Z,97674.19
2017-12-02T15:36:58.600Z,97670.41
2017-12-02T15:39:26.271Z,97671.60
2017-12-02T15:41:54.215Z,97669.11
2017-12-02T15:44:23.515Z,97676.16
2017-12-02T15:46:51.372Z,97672.39
2017-12-02T15:49:22.680Z,97667.28
2017-12-02T15:51:50.677Z,97672.27
2017-12-02T15:54:19.309Z,97669.69
2017-12-02T15:56:48.865Z,97681.64
2017-12-02T15:59:18.731Z,97683.26
2017-12-02T16:01:48.191Z,97673.17
2017-12-02T16:04:15.941Z,97679.41
2017-12-02T16:06:43.631Z,97684.70
2017-12-02T16:09:13.102Z,97681.02
2017-12-02T16:11:41.647Z,97684.39
2017-12-02T16:14:09.326Z,97684.63
2017-12-02T16:16:37.069Z,97684.70
2017-12-02T16:19:04.836Z,97679.31
2017-12-02T16:21:34.363Z,97675.58
2017-12-02T16:24:02.103Z,97682.65
2017-12-02T16:26:29.814Z,97680.16
2017-12-02T16:28:57.519Z,97683.09
2017-12-02T16:31:25.309Z,97687.20
2017-12-02T16:33:53.822Z,97690.48
2017-12-02T16:36:21.521Z,97686.27
2017-12-02T16:38:49.368Z,97687.11
2017-12-02T16:41:17.829Z,97684.09
2017-12-02T16:43:47.084Z,97684.01
2017-12-02T16:46:15.477Z,97686.04
2017-12-02T16:48:43.216Z,97683.48
2017-12-02T16:51:10.907Z,97686.85
2017-12-02T16:53:38.576Z,97689.81
2017-12-02T16:56:06.289Z,97691.58
2017-12-02T16:58:34.156Z,97686.67
2017-12-02T17:01:01.835Z,97688.80
2017-12-02T17:03:29.560Z,97687.20
2017-12-02T17:05:58.072Z,97681.40
2017-12-02T17:08:28.083Z,97683.09
2017-12-02T17:10:55.890Z,97683.05
2017-12-02T17:13:25.392Z,97678.73
2017-12-02T17:15:53.890Z,97678.27
2017-12-02T17:18:21.811Z,97678.88
2017-12-02T17:20:49.544Z,97671.39
2017-12-02T17:23:17.261Z,97674.23
2017-12-02T17:25:48.744Z,97677.97
2017-12-02T17:28:19.878Z,97676.29
2017-12-02T17:30:49.382Z,97675.02
2017-12-02T17:33:17.165Z,97680.29
2017-12-02T17:35:44.849Z,97683.53
2017-12-02T17:38:13.588Z,97692.15
2017-12-02T17:40:41.227Z,97698.32
2017-12-02T17:43:11.560Z,97691.19
2017-12-02T17:45:41.445Z,97689.01
2017-12-02T17:48:09.518Z,97688.98
2017-12-02T17:50:37.244Z,97688.39
2017-12-02T17:53:05.048Z,97692.85
2017-12-02T17:55:32.704Z,97690.64
2017-12-02T17:58:00.394Z,97691.43
2017-12-02T18:00:29.794Z,97687.39
2017-12-02T18:02:57.519Z,97694.49
2017-12-02T18:05:25.299Z,97692.81
2017-12-02T18:07:57.880Z,97692.28
2017-12-02T18:10:27.918Z,97693.16
2017-12-02T18:12:55.617Z,97699.45
2017-12-02T18:15:26.826Z,97702.34
2017-12-02T18:17:54.538Z,97707.77
2017-12-02T18:20:22.355Z,97709.73
2017-12-02T18:22:50.105Z,97709.13
2017-12-02T18:25:18.008Z,97713.36
2017-12-02T18:27:45.703Z,97718.66
2017-12-02T18:30:13.457Z,97720.41
2017-12-02T18:32:41.184Z,97713.23
2017-12-02T18:35:09.462Z,97713.23
2017-12-02T18:37:37.222Z,97717.04
2017-12-02T18:40:06.765Z,97718.34
2017-12-02T18:42:35.244Z,97714.64
2017-12-02T18:45:02.929Z,97717.91
2017-12-02T18:47:30.916Z,97721.59
2017-12-02T18:49:59.469Z,97720.44
2017-12-02T18:52:27.320Z,97713.11
2017-12-02T18:54:55.011Z,97715.16
2017-12-02T18:57:22.672Z,97716.13
2017-12-02T18:59:52.110Z,97709.80
2017-12-02T19:02:19.890Z,97716.78
2017-12-02T19:04:47.740Z,97707.68
2017-12-02T19:07:15.480Z,97716.38
2017-12-02T19:09:44.806Z,97715.13
2017-12-02T19:12:12.593Z,97714.73
2017-12-02T19:14:40.470Z,97702.70
2017-12-02T19:17:09.154Z,97709.27
2017-12-02T19:19:38.255Z,97714.20
2017-12-02T19:22:07.672Z,97710.02
2017-12-02T19:24:37.442Z,97714.17
2017-12-02T19:27:11.928Z,97706.63
2017-12-02T19:29:43.652Z,97706.98
2017-12-02T19:32:13.217Z,97709.50
2017-12-02T19:34:41.808Z,97707.72
2017-12-02T19:37:11.272Z,97718.05
2017-12-02T19:39:39.039Z,97713.05
2017-12-02T19:42:07.062Z,97718.91
2017-12-02T20:19:05.812Z,97720.73
2017-12-02T20:21:35.441Z,97710.31
2017-12-02T20:24:05.556Z,97710.81
2017-12-02T20:26:35.057Z,97717.52
2017-12-02T20:29:06.308Z,97721.07
2017-12-02T20:31:37.125Z,97718.52
2017-12-02T20:34:06.751Z,97718.95
2017-12-02T20:36:35.349Z,97712.88
2017-12-02T20:39:03.214Z,97713.75
2017-12-02T20:41:30.951Z,97713.69
2017-12-02T20:43:59.566Z,97724.81
2017-12-02T20:46:27.640Z,97722.32
2017-12-02T20:48:57.202Z,97716.12
2017-12-02T20:51:26.133Z,97719.05
2017-12-02T20:53:55.771Z,97716.90
2017-12-02T20:56:25.423Z,97718.14
2017-12-02T20:58:53.452Z,97712.78
2017-12-02T21:01:22.997Z,97707.02
2017-12-02T21:03:52.640Z,97708.17
2017-12-02T21:06:20.865Z,97703.91
2017-12-02T21:08:49.389Z,97710.60
2017-12-02T21:11:17.298Z,97710.58
2017-12-02T21:13:45.271Z,97716.90
2017-12-02T21:16:15.049Z,97717.27
2017-12-02T21:18:43.230Z,97718.80
2017-12-02T21:21:11.045Z,97723.84
2017-12-02T21:23:41.728Z,97723.06
2017-12-02T21:26:12.489Z,97721.54
2017-12-02T21:28:40.297Z,97721.97
2017-12-02T21:31:08.139Z,97727.30
2017-12-02T21:33:40.017Z,97731.42
2017-12-02T21:36:07.993Z,97734.78
2017-12-02T21:38:36.530Z,97731.20
2017-12-02T21:41:04.392Z,97729.36
2017-12-02T21:43:33.799Z,97732.29
2017-12-02T21:46:02.507Z,97731.08
2017-12-02T21:48:30.176Z,97723.72
2017-12-02T21:50:58.057Z,97731.38
2017-12-02T21:53:27.460Z,97729.76
2017-12-02T21:55:55.428Z,97728.55
2017-12-02T21:58:23.859Z,97729.76
2017-12-02T22:00:55.722Z,97726.48
2017-12-02T22:03:23.626Z,97732.78
2017-12-02T22:05:52.061Z,97736.83
2017-12-02T22:08:22.902Z,97734.77
2017-12-02T22:10:50.861Z,97735.13
2017-12-02T22:13:18.714Z,97735.87
2017-12-02T22:15:49.042Z,97735.06
2017-12-02T22:18:16.927Z,97728.89
2017-12-02T22:20:44.615Z,97729.70
2017-12-02T22:23:13.940Z,97728.02
2017-12-02T22:25:41.697Z,97737.55
2017-12-02T22:28:10.243Z,97738.77
2017-12-02T22:30:38.034Z,97738.86
2017-12-02T22:33:07.064Z,97732.66
2017-12-02T22:35:35.599Z,97731.13
2017-12-02T22:51:30.758Z,97728.36
2017-12-02T22:53:58.616Z,97737.89
2017-12-02T22:56:26.695Z,97729.98
2017-12-02T22:58:54.405Z,97727.45
2017-12-02T23:01:22.240Z,97721.97
2017-12-02T23:03:50.008Z,97727.83
2017-12-02T23:06:20.462Z,97726.96
2017-12-02T23:08:51.301Z,97730.98
2017-12-02T23:11:21.244Z,97718.20
2017-12-02T23:13:49.053Z,97729.98
2017-12-02T23:16:16.816Z,97715.92
2017-12-02T23:18:44.598Z,97712.63
2017-12-02T23:21:13.064Z,97715.55
2017-12-02T23:23:40.738Z,97718.05
2017-12-02T23:26:08.478Z,97709.31
2017-12-02T23:28:38.812Z,97712.63
2017-12-02T23:31:08.766Z,97715.55
2017-12-02T23:33:39.292Z,97707.32
2017-12-02T23:36:07.220Z,97698.63
2017-12-02T23:38:38.827Z,97700.77
2017-12-02T23:41:06.697Z,97706.69
2017-12-02T23:43:34.490Z,97699.21
2017-12-02T23:46:04.054Z,97702.95
2017-12-02T23:48:33.670Z,97698.28
2017-12-02T23:51:01.537Z,97694.85
2017-12-02T23:53:32.535Z,97689.75
2017-12-02T23:56:00.307Z,97692.23
2017-12-02T23:58:28.255Z,97688.84
